Time;durP1;ratioP1;P1;durP2;ratioP2;P2;SDS_P1;SDS_P2;PMS_P1;PMS_P2;Temp;Humidity;BMP_temperature;BMP_pressure;BME280_temperature;BME280_humidity;BME280_pressure;Samples;Min_cycle;Max_cycle;Signal;HPM_P1;HPM_P2
2022/07/26 00:01:13;;;;;;;23.48;8.68;;;30.00;99.90;;;;;;5033897;28;20049;-50
2022/07/26 00:03:39;;;;;;;17.73;7.43;;;30.00;99.90;;;;;;5033540;28;20045;-50
2022/07/26 00:06:05;;;;;;;32.10;9.05;;;30.10;99.90;;;;;;5033676;28;20022;-50
2022/07/26 00:08:31;;;;;;;25.02;9.43;;;30.10;99.90;;;;;;5033760;28;20047;-50
2022/07/26 00:10:57;;;;;;;19.73;9.70;;;30.10;99.90;;;;;;5033388;28;20251;-50
2022/07/26 00:13:22;;;;;;;25.73;5.35;;;30.10;99.90;;;;;;5033527;28;20055;-50
2022/07/26 00:15:49;;;;;;;17.60;4.93;;;30.20;99.90;;;;;;5048778;28;20029;-49
2022/07/26 00:18:15;;;;;;;25.97;5.37;;;30.30;99.90;;;;;;5033303;28;20148;-50
2022/07/26 00:20:41;;;;;;;22.50;4.50;;;30.30;99.90;;;;;;5033331;28;20017;-49
2022/07/26 00:23:07;;;;;;;20.42;5.15;;;30.40;99.90;;;;;;5033355;28;20079;-50
2022/07/26 00:25:33;;;;;;;30.98;5.47;;;30.50;99.90;;;;;;5033452;28;20057;-49
2022/07/26 00:27:59;;;;;;;27.65;4.93;;;30.50;99.90;;;;;;5033103;28;20052;-49
2022/07/26 00:30:26;;;;;;;30.27;4.70;;;30.60;99.90;;;;;;5033106;28;20041;-50
2022/07/26 00:32:52;;;;;;;26.98;5.05;;;30.70;99.90;;;;;;5031639;28;20473;-50
2022/07/26 00:35:19;;;;;;;18.20;5.30;;;30.70;99.90;;;;;;5032929;28;20040;-50
2022/07/26 00:37:45;;;;;;;22.38;5.00;;;30.80;99.90;;;;;;5033102;28;20018;-50
2022/07/26 00:40:11;;;;;;;28.20;5.60;;;30.80;99.90;;;;;;5032814;28;20032;-50
2022/07/26 00:42:37;;;;;;;31.92;5.93;;;30.80;99.90;;;;;;5032990;28;20112;-50
2022/07/26 00:45:04;;;;;;;21.05;4.50;;;30.90;99.90;;;;;;5032924;28;20021;-50
2022/07/26 00:47:31;;;;;;;28.60;3.72;;;30.90;99.90;;;;;;5032499;28;20048;-50
2022/07/26 00:49:56;;;;;;;25.23;4.35;;;30.90;99.90;;;;;;5032654;28;20070;-50
2022/07/26 00:52:22;;;;;;;26.83;6.10;;;31.00;99.90;;;;;;5032662;28;20029;-51
2022/07/26 00:54:49;;;;;;;26.70;5.50;;;31.00;99.90;;;;;;5032491;28;20116;-51
2022/07/26 00:57:15;;;;;;;36.05;6.22;;;31.00;99.90;;;;;;5048008;28;20032;-50
2022/07/26 00:59:41;;;;;;;30.80;4.53;;;31.10;99.90;;;;;;5032815;28;20087;-50
2022/07/26 01:02:08;;;;;;;17.73;5.63;;;31.10;99.90;;;;;;5032959;28;20025;-49
2022/07/26 01:04:34;;;;;;;24.23;3.67;;;31.20;99.90;;;;;;5032593;28;20513;-50
2022/07/26 01:07:01;;;;;;;21.02;3.90;;;31.20;99.90;;;;;;5032386;28;20029;-50
2022/07/26 01:09:27;;;;;;;19.08;4.22;;;31.20;99.90;;;;;;5032496;28;20113;-49
2022/07/26 01:11:53;;;;;;;15.27;3.78;;;31.30;99.90;;;;;;5032124;28;20517;-49
2022/07/26 01:14:22;;;;;;;19.55;4.57;;;31.30;99.90;;;;;;5032331;28;20070;-49
2022/07/26 01:16:48;;;;;;;16.13;3.90;;;31.40;99.90;;;;;;5032182;28;20018;-49
2022/07/26 01:19:15;;;;;;;14.43;4.43;;;31.40;99.90;;;;;;5032399;28;20037;-48
2022/07/26 01:21:41;;;;;;;27.75;4.00;;;31.40;99.90;;;;;;5032168;28;20026;-49
2022/07/26 01:24:07;;;;;;;17.67;4.30;;;31.50;99.90;;;;;;5032197;28;20063;-48
2022/07/26 01:26:33;;;;;;;17.98;4.22;;;31.60;99.90;;;;;;5031973;28;20025;-48
2022/07/26 01:28:59;;;;;;;23.13;4.93;;;31.60;99.90;;;;;;5031926;28;20148;-49
2022/07/26 01:31:25;;;;;;;15.13;3.30;;;31.70;99.90;;;;;;5031840;28;20111;-48
2022/07/26 01:33:51;;;;;;;19.63;3.70;;;31.70;99.90;;;;;;5032104;28;20465;-49
2022/07/26 01:36:18;;;;;;;21.48;3.60;;;31.70;99.90;;;;;;5031912;28;20080;-48
2022/07/26 01:38:44;;;;;;;19.50;4.78;;;31.70;99.90;;;;;;5031847;28;20029;-48
2022/07/26 01:41:10;;;;;;;18.15;4.00;;;31.80;99.90;;;;;;5032039;28;20037;-48
2022/07/26 01:43:36;;;;;;;18.73;5.03;;;31.90;99.90;;;;;;5030450;28;20449;-49
2022/07/26 01:46:03;;;;;;;16.05;4.57;;;31.80;99.90;;;;;;5031918;28;20061;-49
2022/07/26 01:48:29;;;;;;;16.70;3.88;;;31.80;99.90;;;;;;5031864;28;20014;-49
2022/07/26 01:50:55;;;;;;;19.17;3.90;;;31.80;99.90;;;;;;5031511;28;20067;-49
2022/07/26 01:53:21;;;;;;;20.25;3.53;;;31.80;99.90;;;;;;5031583;28;20022;-49
2022/07/26 01:55:47;;;;;;;20.42;4.32;;;31.80;99.90;;;;;;5031764;28;20157;-49
2022/07/26 01:58:13;;;;;;;11.82;2.85;;;31.80;99.90;;;;;;5030941;28;20018;-48
2022/07/26 02:00:38;;;;;;;13.13;3.20;;;31.90;99.90;;;;;;5032087;28;20441;-48
2022/07/26 02:03:04;;;;;;;25.60;3.83;;;31.90;99.90;;;;;;5031435;28;20033;-50
2022/07/26 02:05:30;;;;;;;11.55;2.83;;;31.90;99.90;;;;;;5031452;28;20045;-48
2022/07/26 02:07:57;;;;;;;17.85;4.35;;;31.90;99.90;;;;;;5031405;28;20025;-49
2022/07/26 02:10:23;;;;;;;18.40;3.42;;;31.90;99.90;;;;;;5031523;28;20042;-49
2022/07/26 02:12:49;;;;;;;12.32;3.47;;;31.90;99.90;;;;;;5031445;28;20030;-49
2022/07/26 02:15:15;;;;;;;13.45;3.22;;;32.00;99.90;;;;;;5031308;28;20029;-48
2022/07/26 02:17:41;;;;;;;19.48;3.80;;;32.00;99.90;;;;;;5031472;28;20117;-49
2022/07/26 02:20:08;;;;;;;10.20;3.50;;;31.90;99.90;;;;;;5031319;28;20021;-49
2022/07/26 02:22:34;;;;;;;16.37;3.87;;;31.90;99.90;;;;;;5046517;28;20096;-49
2022/07/26 02:25:00;;;;;;;14.38;3.67;;;31.90;99.90;;;;;;5031221;28;20113;-49
2022/07/26 02:27:25;;;;;;;13.15;4.00;;;31.90;99.90;;;;;;5031091;28;20057;-49
2022/07/26 02:29:51;;;;;;;20.38;3.72;;;31.90;99.90;;;;;;5031021;28;20022;-49
2022/07/26 02:32:17;;;;;;;8.90;3.65;;;31.90;99.90;;;;;;5031070;28;20034;-49
2022/07/26 02:34:43;;;;;;;18.73;3.25;;;31.90;99.90;;;;;;5046625;28;20029;-49
2022/07/26 02:37:08;;;;;;;14.25;3.78;;;31.90;99.90;;;;;;5029851;28;20493;-49
2022/07/26 02:39:34;;;;;;;14.48;3.03;;;31.90;99.90;;;;;;5030984;28;20543;-49
2022/07/26 02:42:01;;;;;;;20.25;3.50;;;31.90;99.90;;;;;;5030987;28;20489;-50
2022/07/26 02:44:28;;;;;;;14.82;3.55;;;31.90;99.90;;;;;;5031109;28;20025;-48
2022/07/26 02:46:54;;;;;;;12.80;3.60;;;31.90;99.90;;;;;;5030851;28;20045;-48
2022/07/26 02:49:20;;;;;;;7.75;2.67;;;31.90;99.90;;;;;;5031056;28;20025;-49
2022/07/26 02:51:46;;;;;;;17.75;2.88;;;31.90;99.90;;;;;;5030895;28;20450;-49
2022/07/26 02:54:12;;;;;;;14.38;3.03;;;31.90;99.90;;;;;;5031218;28;20034;-48
2022/07/26 02:56:39;;;;;;;15.93;3.00;;;31.90;99.90;;;;;;5030941;28;20470;-48
2022/07/26 02:59:06;;;;;;;15.18;3.28;;;31.90;99.90;;;;;;5031056;28;20017;-48
2022/07/26 03:01:34;;;;;;;;;;;32.00;98.30;;;;;;5031864;28;20191;-49
2022/07/26 03:04:00;;;;;;;11.75;3.08;;;32.00;99.30;;;;;;5030834;28;19905;-48
2022/07/26 03:06:26;;;;;;;17.45;3.08;;;32.00;98.30;;;;;;5030929;28;20477;-48
2022/07/26 03:08:51;;;;;;;15.68;3.47;;;32.00;99.90;;;;;;5030783;28;20032;-49
2022/07/26 03:11:17;;;;;;;13.05;2.88;;;32.00;97.10;;;;;;5034001;28;20037;-49
2022/07/26 03:13:43;;;;;;;12.23;3.88;;;32.00;97.50;;;;;;5034932;28;20469;-49
2022/07/26 03:16:09;;;;;;;16.88;3.72;;;32.00;94.30;;;;;;5034614;28;20061;-49
2022/07/26 03:18:34;;;;;;;16.98;5.60;;;32.00;99.90;;;;;;5034301;28;20038;-49
2022/07/26 03:21:00;;;;;;;12.20;3.40;;;32.00;99.40;;;;;;5034386;28;20057;-49
2022/07/26 03:23:26;;;;;;;13.32;3.05;;;32.00;98.70;;;;;;5034417;28;20026;-49
2022/07/26 03:25:52;;;;;;;9.48;3.65;;;32.00;97.70;;;;;;5034337;28;20033;-49
2022/07/26 03:28:18;;;;;;;16.15;3.67;;;32.00;98.20;;;;;;5034409;28;20516;-49
2022/07/26 03:30:44;;;;;;;16.90;3.03;;;32.00;99.60;;;;;;5049484;28;20500;-49
2022/07/26 03:33:10;;;;;;;15.48;3.38;;;32.00;93.10;;;;;;5034256;28;20029;-49
2022/07/26 03:35:35;;;;;;;10.55;2.92;;;32.00;99.90;;;;;;5032924;28;20017;-49
2022/07/26 03:38:01;;;;;;;8.95;2.70;;;32.00;99.90;;;;;;5034141;28;20095;-49
2022/07/26 03:40:27;;;;;;;8.95;3.13;;;31.90;99.90;;;;;;5034145;28;20101;-48
2022/07/26 03:42:54;;;;;;;12.07;3.10;;;31.80;99.90;;;;;;5034098;28;20071;-48
2022/07/26 03:45:19;;;;;;;10.95;3.42;;;31.70;99.90;;;;;;5034010;28;20053;-48
2022/07/26 03:47:45;;;;;;;10.30;3.40;;;31.70;99.90;;;;;;5034099;28;20060;-48
2022/07/26 03:50:12;;;;;;;9.63;2.95;;;31.60;99.90;;;;;;5033789;28;20083;-48
2022/07/26 03:52:38;;;;;;;11.38;3.22;;;31.50;99.90;;;;;;5027625;28;20040;-48
2022/07/26 03:56:27;;;;;;;12.40;2.88;;;31.50;99.90;;;;;;5025910;28;20097;-49
2022/07/26 03:57:51;;;;;;;9.73;3.00;;;31.40;99.90;;;;;;5024186;28;20034;-49
2022/07/26 04:00:17;;;;;;;12.85;3.35;;;31.40;99.90;;;;;;5020670;28;20042;-47
2022/07/26 04:02:43;;;;;;;10.75;3.13;;;31.30;99.90;;;;;;5005328;28;20018;-47
2022/07/26 04:05:09;;;;;;;7.82;2.60;;;31.20;99.90;;;;;;5028617;28;20033;-48
2022/07/26 04:07:41;;;;;;;8.52;2.83;;;31.20;99.90;;;;;;5033556;28;20030;-48
2022/07/26 04:10:08;;;;;;;11.75;3.00;;;31.10;99.90;;;;;;5033089;28;20026;-48
2022/07/26 04:12:34;;;;;;;17.87;3.70;;;31.10;99.90;;;;;;5032353;28;20036;-48
2022/07/26 04:14:59;;;;;;;7.18;2.70;;;31.10;99.90;;;;;;5033417;28;20432;-49
2022/07/26 04:17:25;;;;;;;11.45;2.95;;;31.00;99.90;;;;;;5033385;28;20018;-48
2022/07/26 04:19:52;;;;;;;6.22;2.92;;;31.00;99.90;;;;;;5033443;28;20032;-49
2022/07/26 04:22:18;;;;;;;6.75;3.33;;;31.00;99.90;;;;;;5032732;28;20754;-48
2022/07/26 04:24:44;;;;;;;5.90;2.50;;;30.90;99.90;;;;;;5031900;28;20106;-49
2022/07/26 04:27:09;;;;;;;6.07;2.42;;;30.80;99.90;;;;;;5033350;28;20029;-48
2022/07/26 04:29:35;;;;;;;6.28;2.78;;;30.80;99.90;;;;;;5033038;28;20025;-48
2022/07/26 04:32:01;;;;;;;7.75;2.53;;;30.80;99.90;;;;;;5031700;28;20033;-48
2022/07/26 04:34:27;;;;;;;6.45;2.20;;;30.70;99.90;;;;;;5033084;28;20017;-48
2022/07/26 04:36:52;;;;;;;5.97;2.20;;;30.70;99.90;;;;;;5033073;28;20381;-48
2022/07/26 04:39:23;;;;;;;8.15;2.55;;;30.70;99.90;;;;;;5033086;28;20033;-48
2022/07/26 04:41:49;;;;;;;7.85;3.15;;;30.70;99.90;;;;;;5033133;28;20025;-48
2022/07/26 04:44:16;;;;;;;4.22;2.30;;;30.60;99.90;;;;;;5032900;28;20105;-49
2022/07/26 04:46:42;;;;;;;7.32;2.78;;;30.60;99.90;;;;;;5032916;28;20469;-49
2022/07/26 04:49:07;;;;;;;5.95;2.65;;;30.60;99.90;;;;;;5032762;28;20112;-48
2022/07/26 04:51:33;;;;;;;4.85;2.10;;;30.60;99.90;;;;;;5032688;28;20120;-48
2022/07/26 04:53:59;;;;;;;6.50;2.20;;;30.60;99.90;;;;;;5032766;28;20473;-48
2022/07/26 04:56:24;;;;;;;4.85;2.00;;;30.50;99.90;;;;;;5032670;28;20026;-48
2022/07/26 04:58:50;;;;;;;4.82;2.60;;;30.50;99.90;;;;;;5032729;28;20097;-48
2022/07/26 05:01:16;;;;;;;7.85;2.13;;;30.50;99.90;;;;;;5032491;28;20045;-48
2022/07/26 05:03:41;;;;;;;6.40;2.47;;;30.50;99.90;;;;;;5032650;28;20044;-48
2022/07/26 05:06:08;;;;;;;7.03;2.60;;;30.40;99.90;;;;;;5032511;28;20029;-48
2022/07/26 05:08:33;;;;;;;5.32;2.22;;;30.40;99.90;;;;;;5032439;28;20033;-48
2022/07/26 05:10:59;;;;;;;3.63;2.33;;;30.40;99.90;;;;;;5032288;28;20029;-48
2022/07/26 05:13:25;;;;;;;4.20;2.25;;;30.40;99.90;;;;;;5032504;28;20066;-48
2022/07/26 05:15:51;;;;;;;5.45;2.15;;;30.30;99.90;;;;;;5032538;28;20084;-48
2022/07/26 05:18:16;;;;;;;5.50;2.17;;;30.40;99.90;;;;;;5032263;28;20030;-49
2022/07/26 05:20:42;;;;;;;9.50;2.55;;;30.30;99.90;;;;;;5032109;28;20555;-49
2022/07/26 05:23:08;;;;;;;6.05;2.10;;;30.30;99.90;;;;;;5032283;28;20084;-48
2022/07/26 05:25:34;;;;;;;6.32;2.20;;;30.30;99.90;;;;;;5032362;28;20108;-48
2022/07/26 05:28:00;;;;;;;3.97;2.00;;;30.30;99.90;;;;;;5030797;28;20501;-48
2022/07/26 05:30:26;;;;;;;4.35;2.15;;;30.30;99.90;;;;;;5032173;28;20061;-48
2022/07/26 05:32:52;;;;;;;4.63;2.22;;;30.20;99.90;;;;;;5031568;28;20021;-48
2022/07/26 05:35:18;;;;;;;5.88;2.38;;;30.20;99.90;;;;;;5031567;28;20366;-49
2022/07/26 05:37:44;;;;;;;8.00;2.45;;;30.20;99.90;;;;;;5031822;28;20018;-48
2022/07/26 05:40:11;;;;;;;4.35;2.05;;;30.20;99.90;;;;;;5031653;28;20045;-48
2022/07/26 05:42:36;;;;;;;4.70;1.80;;;30.20;99.90;;;;;;5031707;28;20021;-48
2022/07/26 05:45:04;;;;;;;3.58;2.15;;;30.20;99.90;;;;;;5031661;28;20026;-48
2022/07/26 05:47:29;;;;;;;6.45;2.03;;;30.10;99.90;;;;;;5031614;28;20469;-48
2022/07/26 05:49:55;;;;;;;4.22;2.15;;;30.10;99.90;;;;;;5031646;28;20032;-48
2022/07/26 05:52:22;;;;;;;4.07;1.85;;;30.10;99.90;;;;;;5031541;28;20535;-48
2022/07/26 05:54:48;;;;;;;4.25;2.80;;;30.10;99.90;;;;;;5031711;28;20095;-48
2022/07/26 05:57:14;;;;;;;8.15;2.10;;;30.10;99.90;;;;;;5031720;28;20469;-49
2022/07/26 05:59:39;;;;;;;4.85;2.30;;;30.10;99.90;;;;;;5031445;28;20030;-49
2022/07/26 06:02:07;;;;;;;4.00;1.65;;;30.10;99.90;;;;;;5031484;28;20029;-49
2022/07/26 06:04:33;;;;;;;3.63;2.28;;;30.00;99.90;;;;;;5029969;28;20082;-52
2022/07/26 06:06:59;;;;;;;3.70;1.70;;;30.00;99.90;;;;;;5030972;28;20533;-49
2022/07/26 06:09:25;;;;;;;5.28;2.20;;;30.00;99.90;;;;;;5030041;28;20120;-49
2022/07/26 06:11:52;;;;;;;3.38;1.90;;;30.00;99.90;;;;;;5031085;28;20363;-49
2022/07/26 06:14:19;;;;;;;4.57;1.97;;;30.00;99.90;;;;;;5031131;28;20102;-49
2022/07/26 06:16:48;;;;;;;4.13;2.20;;;30.00;99.90;;;;;;5031064;28;20409;-49
2022/07/26 06:19:14;;;;;;;4.57;1.90;;;30.00;99.90;;;;;;5031121;28;20028;-49
2022/07/26 06:21:41;;;;;;;3.92;1.83;;;30.00;99.90;;;;;;5030954;28;20381;-49
2022/07/26 06:24:07;;;;;;;4.68;1.80;;;30.00;99.90;;;;;;5030959;28;20469;-48
2022/07/26 06:26:33;;;;;;;4.82;1.52;;;30.00;99.90;;;;;;5030986;28;20041;-49
2022/07/26 06:28:58;;;;;;;3.88;1.73;;;29.90;99.90;;;;;;5031246;28;20025;-49
2022/07/26 06:31:24;;;;;;;6.00;1.75;;;29.90;99.90;;;;;;5030838;28;20120;-49
2022/07/26 06:33:50;;;;;;;4.65;1.90;;;29.90;99.90;;;;;;5031027;28;20437;-49
2022/07/26 06:36:16;;;;;;;2.78;1.77;;;29.90;99.90;;;;;;5031041;28;20100;-49
2022/07/26 06:38:42;;;;;;;4.75;2.08;;;29.90;99.90;;;;;;5030918;28;20096;-49
2022/07/26 06:41:08;;;;;;;6.53;2.10;;;29.90;99.90;;;;;;5030828;28;20053;-49
2022/07/26 06:43:34;;;;;;;3.88;1.92;;;29.90;99.90;;;;;;5030816;28;20021;-49
2022/07/26 06:45:59;;;;;;;5.50;2.00;;;29.90;99.90;;;;;;5034040;28;20034;-49
2022/07/26 06:48:25;;;;;;;3.70;2.17;;;29.90;99.90;;;;;;5035036;28;20037;-49
2022/07/26 06:50:51;;;;;;;4.70;1.67;;;29.90;99.90;;;;;;5033409;28;20033;-48
2022/07/26 06:53:17;;;;;;;3.70;1.77;;;29.80;99.90;;;;;;5034821;28;20117;-49
2022/07/26 06:55:42;;;;;;;2.97;1.60;;;29.80;99.90;;;;;;5034663;28;20025;-49
2022/07/26 06:58:08;;;;;;;3.28;2.28;;;29.90;99.90;;;;;;5034714;28;20462;-49
2022/07/26 07:00:34;;;;;;;4.68;2.03;;;29.80;99.90;;;;;;5034561;28;20120;-49
2022/07/26 07:03:00;;;;;;;6.55;2.35;;;29.80;99.90;;;;;;5033607;28;20470;-49
2022/07/26 07:05:25;;;;;;;4.03;2.42;;;29.80;99.90;;;;;;5034522;28;20031;-49
2022/07/26 07:07:51;;;;;;;4.43;1.90;;;29.80;99.90;;;;;;5034623;28;20033;-49
2022/07/26 07:10:17;;;;;;;3.67;1.83;;;29.80;99.90;;;;;;5034383;28;20397;-53
2022/07/26 07:12:43;;;;;;;4.32;1.95;;;29.80;99.90;;;;;;5034400;28;20079;-49
2022/07/26 07:15:11;;;;;;;2.83;1.55;;;29.80;99.90;;;;;;5034593;28;20021;-49
2022/07/26 07:17:37;;;;;;;3.67;1.58;;;29.80;99.90;;;;;;5032971;28;20120;-52
2022/07/26 07:20:04;;;;;;;4.55;1.60;;;29.80;99.90;;;;;;5034621;28;20026;-49
2022/07/26 07:22:30;;;;;;;3.03;1.83;;;29.80;99.90;;;;;;5034440;28;20037;-48
2022/07/26 07:24:55;;;;;;;3.10;1.70;;;29.70;99.90;;;;;;5032902;28;20026;-49
2022/07/26 07:27:21;;;;;;;6.72;2.00;;;29.70;99.90;;;;;;5034246;28;20100;-49
2022/07/26 07:29:47;;;;;;;3.83;2.00;;;29.80;99.90;;;;;;5034118;28;20049;-50
2022/07/26 07:32:13;;;;;;;4.32;1.88;;;29.80;99.90;;;;;;5033955;28;20052;-49
2022/07/26 07:34:39;;;;;;;4.75;2.28;;;29.70;99.90;;;;;;5034041;28;20033;-49
2022/07/26 07:37:04;;;;;;;2.88;1.75;;;29.70;99.90;;;;;;5033877;28;20025;-49
2022/07/26 07:39:30;;;;;;;4.70;1.95;;;29.70;99.90;;;;;;5034005;28;20366;-49
2022/07/26 07:41:56;;;;;;;5.13;1.88;;;29.70;99.90;;;;;;5033718;28;20059;-49
2022/07/26 07:44:22;;;;;;;2.58;1.48;;;29.70;99.90;;;;;;5033783;28;20079;-49
2022/07/26 07:46:48;;;;;;;3.53;2.03;;;29.70;99.90;;;;;;5033797;28;20030;-49
2022/07/26 07:49:14;;;;;;;4.55;1.35;;;29.70;99.90;;;;;;5033839;28;20155;-50
2022/07/26 07:51:40;;;;;;;4.57;1.90;;;29.70;99.90;;;;;;5033681;28;20025;-49
2022/07/26 07:54:07;;;;;;;2.78;1.92;;;29.70;99.90;;;;;;5033636;28;20025;-49
2022/07/26 07:56:33;;;;;;;3.58;1.73;;;29.70;99.90;;;;;;5032757;28;20029;-49
2022/07/26 07:58:59;;;;;;;3.17;1.40;;;29.70;99.90;;;;;;5033600;28;20033;-49
2022/07/26 08:01:25;;;;;;;5.45;1.73;;;29.70;99.90;;;;;;5032236;28;20061;-49
2022/07/26 08:03:50;;;;;;;3.35;1.70;;;29.70;99.90;;;;;;5033554;28;20358;-49
2022/07/26 08:06:16;;;;;;;3.83;1.80;;;29.70;99.90;;;;;;5033356;28;20018;-49
2022/07/26 08:08:42;;;;;;;5.03;1.55;;;29.70;99.90;;;;;;5033467;28;20496;-49
2022/07/26 08:11:08;;;;;;;3.65;1.70;;;29.70;99.90;;;;;;5033332;28;20034;-49
2022/07/26 08:13:34;;;;;;;3.78;1.80;;;29.70;99.90;;;;;;5033626;28;20171;-49
2022/07/26 08:16:00;;;;;;;2.53;1.58;;;29.70;99.90;;;;;;5033295;28;20394;-49
2022/07/26 08:18:25;;;;;;;2.90;1.30;;;29.70;99.90;;;;;;5033423;28;20034;-49
2022/07/26 08:20:52;;;;;;;4.55;1.58;;;29.70;99.90;;;;;;5033147;28;20387;-50
2022/07/26 08:23:19;;;;;;;3.93;1.90;;;29.70;99.90;;;;;;5032053;28;20061;-50
2022/07/26 08:25:45;;;;;;;5.60;1.65;;;29.70;99.90;;;;;;5033147;28;20262;-50
2022/07/26 08:28:11;;;;;;;4.57;1.70;;;29.70;99.90;;;;;;5032778;28;20021;-50
2022/07/26 08:30:37;;;;;;;2.40;1.77;;;29.70;99.90;;;;;;5031903;28;20024;-49
2022/07/26 08:33:03;;;;;;;3.13;1.60;;;29.70;99.90;;;;;;5033111;28;20469;-49
2022/07/26 08:35:29;;;;;;;3.20;1.73;;;29.70;99.90;;;;;;5031595;28;20026;-50
2022/07/26 08:37:56;;;;;;;4.47;1.67;;;29.70;99.90;;;;;;5032809;28;20114;-50
2022/07/26 08:40:22;;;;;;;3.92;1.90;;;29.70;99.90;;;;;;5032736;28;20017;-50
2022/07/26 08:42:49;;;;;;;3.35;1.80;;;29.70;99.90;;;;;;5032764;28;20025;-50
2022/07/26 08:45:26;;;;;;;3.67;1.40;;;29.70;99.90;;;;;;5032820;28;20041;-50
2022/07/26 08:47:53;;;;;;;2.78;1.45;;;29.70;99.90;;;;;;5032729;28;20118;-51
2022/07/26 08:50:19;;;;;;;2.10;1.50;;;29.70;99.90;;;;;;5032375;28;20053;-48
2022/07/26 08:52:45;;;;;;;3.03;1.67;;;29.70;99.90;;;;;;5032319;28;20055;-49
2022/07/26 08:55:16;;;;;;;3.28;1.70;;;29.70;99.90;;;;;;5032392;28;20104;-49
2022/07/26 08:57:42;;;;;;;2.35;1.45;;;29.70;99.90;;;;;;5032291;28;20032;-49
2022/07/26 09:00:25;;;;;;;2.00;1.50;;;29.70;99.90;;;;;;5032407;28;20045;-48
2022/07/26 09:02:52;;;;;;;4.43;1.70;;;29.70;99.90;;;;;;5032297;28;20029;-49
2022/07/26 09:05:35;;;;;;;3.40;1.27;;;29.70;99.90;;;;;;5031142;28;20017;-49
2022/07/26 09:08:28;;;;;;;3.40;1.52;;;29.70;99.90;;;;;;5031847;28;20059;-49
2022/07/26 09:10:54;;;;;;;2.13;1.33;;;29.70;99.90;;;;;;5030657;28;20021;-49
2022/07/26 09:13:22;;;;;;;;;;;29.70;99.90;;;;;;5032506;28;20045;-51
2022/07/26 09:16:06;;;;;;;3.47;1.73;;;29.70;99.90;;;;;;5031941;28;19924;-49
2022/07/26 09:18:32;;;;;;;3.22;1.42;;;29.70;99.90;;;;;;5032079;28;20087;-49
2022/07/26 09:21:00;;;;;;;3.33;1.70;;;29.70;99.90;;;;;;5031696;28;20029;-50
2022/07/26 09:23:38;;;;;;;4.60;2.10;;;29.70;99.90;;;;;;5031864;28;20037;-49
2022/07/26 09:26:04;;;;;;;2.22;1.70;;;29.70;99.90;;;;;;5032053;28;20025;-49
2022/07/26 09:28:30;;;;;;;3.45;1.65;;;29.70;99.90;;;;;;5031693;28;20059;-49
2022/07/26 09:30:59;;;;;;;2.35;1.50;;;29.70;99.90;;;;;;5031464;28;20124;-49
2022/07/26 09:33:25;;;;;;;3.03;1.77;;;29.70;99.90;;;;;;5031782;28;20021;-49
2022/07/26 09:36:05;;;;;;;2.45;1.50;;;29.70;99.90;;;;;;5030491;28;20418;-49
2022/07/26 09:38:39;;;;;;;6.25;1.85;;;29.70;99.90;;;;;;5030388;28;20474;-49
2022/07/26 09:41:19;;;;;;;4.40;1.85;;;29.70;99.90;;;;;;5031528;28;20017;-50
2022/07/26 09:43:45;;;;;;;4.50;1.77;;;29.70;99.90;;;;;;5031849;28;20040;-49
2022/07/26 09:46:11;;;;;;;5.03;2.38;;;29.70;99.90;;;;;;5031774;28;20100;-49
2022/07/26 09:48:40;;;;;;;4.47;1.90;;;29.70;99.90;;;;;;5031648;28;20434;-49
2022/07/26 09:51:06;;;;;;;2.33;1.33;;;29.80;99.90;;;;;;5031209;28;20095;-49
2022/07/26 09:53:58;;;;;;;4.15;2.10;;;29.80;99.90;;;;;;5031192;28;20025;-49
2022/07/26 09:56:24;;;;;;;3.58;1.80;;;29.80;99.90;;;;;;5030116;28;20068;-48
2022/07/26 09:58:51;;;;;;;4.57;1.90;;;29.70;99.90;;;;;;5031287;28;20049;-48
2022/07/26 10:01:17;;;;;;;4.43;2.20;;;29.70;99.90;;;;;;5030864;28;20057;-48
2022/07/26 10:03:44;;;;;;;3.30;1.77;;;29.80;99.90;;;;;;5031510;28;20116;-48
2022/07/26 10:06:10;;;;;;;;;;;29.80;99.90;;;;;;5031922;28;20033;-48
2022/07/26 10:08:36;;;;;;;4.40;2.65;;;29.80;99.90;;;;;;5030989;28;20372;-48
2022/07/26 10:11:07;;;;;;;4.18;2.13;;;29.80;99.90;;;;;;5031008;28;20037;-48
2022/07/26 10:13:33;;;;;;;4.43;2.33;;;29.80;99.90;;;;;;5031045;28;20034;-48
2022/07/26 10:16:00;;;;;;;4.70;2.33;;;29.80;99.90;;;;;;5031309;28;20025;-49
2022/07/26 10:18:35;;;;;;;3.45;2.10;;;29.80;99.90;;;;;;5030929;28;20030;-48
2022/07/26 10:21:20;;;;;;;4.10;1.95;;;29.80;99.90;;;;;;5030350;28;20048;-48
2022/07/26 10:23:49;;;;;;;5.80;2.10;;;29.80;99.90;;;;;;5031059;28;20462;-49
2022/07/26 10:26:33;;;;;;;3.70;1.90;;;29.80;99.90;;;;;;5031071;28;20030;-48
2022/07/26 10:29:22;;;;;;;6.00;2.25;;;29.80;99.90;;;;;;5031116;28;20033;-48
2022/07/26 10:31:49;;;;;;;4.00;2.13;;;29.80;99.90;;;;;;5030881;28;20211;-48
2022/07/26 10:34:30;;;;;;;4.28;2.92;;;29.90;99.90;;;;;;5031036;28;20060;-48
2022/07/26 10:36:58;;;;;;;4.40;2.10;;;29.80;99.90;;;;;;5030752;28;20491;-48
2022/07/26 10:39:25;;;;;;;5.10;2.15;;;29.90;99.90;;;;;;5030704;28;20101;-49
2022/07/26 10:42:09;;;;;;;3.78;1.73;;;29.80;99.90;;;;;;5030694;28;20381;-48
2022/07/26 10:44:38;;;;;;;7.22;2.30;;;29.80;99.90;;;;;;5029168;28;20542;-49
2022/07/26 10:47:07;;;;;;;3.10;2.20;;;29.80;99.90;;;;;;5030610;28;20036;-48
2022/07/26 10:49:42;;;;;;;3.33;2.38;;;29.90;99.90;;;;;;5030722;28;20440;-48
2022/07/26 10:52:08;;;;;;;3.30;2.10;;;29.90;99.90;;;;;;5030391;28;20038;-49
2022/07/26 10:54:56;;;;;;;4.10;2.47;;;29.90;99.90;;;;;;5030571;28;20026;-49
2022/07/26 10:57:30;;;;;;;5.43;2.60;;;29.90;99.90;;;;;;5030643;28;20025;-49
2022/07/26 10:59:57;;;;;;;3.30;2.10;;;29.90;99.90;;;;;;5030365;28;20042;-49
2022/07/26 11:02:32;;;;;;;6.90;2.30;;;29.90;99.90;;;;;;5030273;28;20033;-49
2022/07/26 11:05:15;;;;;;;3.20;2.42;;;29.90;99.90;;;;;;5030512;28;20037;-49
2022/07/26 11:08:13;;;;;;;5.80;2.50;;;29.90;99.90;;;;;;5030591;28;20053;-48
2022/07/26 11:10:45;;;;;;;3.72;2.28;;;29.90;99.90;;;;;;5030476;28;20354;-49
2022/07/26 11:13:14;;;;;;;4.07;2.75;;;29.90;99.90;;;;;;5030415;28;20056;-49
2022/07/26 11:15:43;;;;;;;4.22;2.72;;;29.90;99.90;;;;;;5030374;28;20040;-49
2022/07/26 11:18:11;;;;;;;5.45;2.60;;;30.00;99.90;;;;;;5030351;28;20152;-49
2022/07/26 11:20:37;;;;;;;4.95;3.00;;;30.00;99.90;;;;;;5029223;28;20026;-49
2022/07/26 11:23:03;;;;;;;3.35;2.70;;;30.00;99.90;;;;;;5030499;28;20168;-48
2022/07/26 11:25:29;;;;;;;6.90;2.58;;;30.00;99.90;;;;;;5030418;28;20092;-48
2022/07/26 11:28:05;;;;;;;5.07;2.67;;;30.00;99.90;;;;;;5029068;28;20025;-49
2022/07/26 11:30:30;;;;;;;5.22;2.42;;;30.00;99.90;;;;;;5029443;28;20033;-49
2022/07/26 11:32:59;;;;;;;3.08;2.30;;;30.00;99.90;;;;;;5033945;28;20079;-49
2022/07/26 11:35:26;;;;;;;7.05;2.95;;;30.00;99.90;;;;;;5033959;28;20109;-49
2022/07/26 11:37:54;;;;;;;5.10;2.55;;;30.00;99.90;;;;;;5033890;28;20362;-49
2022/07/26 11:40:44;;;;;;;4.32;2.83;;;30.00;99.90;;;;;;5033766;28;20032;-49
2022/07/26 11:43:09;;;;;;;7.38;2.70;;;30.00;99.90;;;;;;5033713;28;20025;-49
2022/07/26 11:45:35;;;;;;;5.10;3.20;;;30.00;99.90;;;;;;5033600;28;20381;-49
2022/07/26 11:48:03;;;;;;;5.53;2.88;;;30.00;99.90;;;;;;5033749;28;20033;-49
2022/07/26 11:50:28;;;;;;;4.57;3.50;;;30.00;99.90;;;;;;5033575;28;20049;-49
2022/07/26 11:52:54;;;;;;;4.97;3.35;;;30.00;99.90;;;;;;5032430;28;20481;-49
2022/07/26 11:55:28;;;;;;;5.25;3.40;;;30.10;99.90;;;;;;5033876;28;20061;-49
2022/07/26 11:57:54;;;;;;;4.97;3.40;;;30.10;99.90;;;;;;5033122;28;20122;-49
2022/07/26 12:00:22;;;;;;;6.40;3.58;;;30.10;99.90;;;;;;5033528;28;20041;-50
2022/07/26 12:02:48;;;;;;;3.80;3.40;;;30.10;99.90;;;;;;5033755;28;20022;-49
2022/07/26 12:05:22;;;;;;;6.10;3.40;;;30.10;99.90;;;;;;5032192;28;20044;-50
2022/07/26 12:08:03;;;;;;;4.63;3.13;;;30.10;99.90;;;;;;5033642;28;20025;-49
2022/07/26 12:10:29;;;;;;;5.07;4.15;;;30.10;99.90;;;;;;5033318;28;20382;-49
2022/07/26 12:13:14;;;;;;;5.70;3.30;;;30.10;99.90;;;;;;5033466;28;20040;-49
2022/07/26 12:15:51;;;;;;;4.90;3.63;;;30.10;99.90;;;;;;5032057;28;20014;-49
2022/07/26 12:18:28;;;;;;;5.57;3.55;;;30.10;99.90;;;;;;5033371;28;20409;-49
2022/07/26 12:21:05;;;;;;;4.28;3.20;;;30.20;99.90;;;;;;5033408;28;20045;-49
2022/07/26 12:23:47;;;;;;;4.40;3.60;;;30.20;99.90;;;;;;5033418;28;20473;-49
2022/07/26 12:26:25;;;;;;;5.90;4.18;;;30.20;99.90;;;;;;5033211;28;20488;-49
2022/07/26 12:28:51;;;;;;;4.82;3.75;;;30.20;99.90;;;;;;5033423;28;20029;-50
2022/07/26 12:31:31;;;;;;;6.80;3.47;;;30.20;99.90;;;;;;5031623;28;20477;-49
2022/07/26 12:33:58;;;;;;;5.35;3.58;;;30.20;99.90;;;;;;5033052;28;20461;-49
2022/07/26 12:36:24;;;;;;;5.47;3.88;;;30.20;99.90;;;;;;5031953;28;20421;-49
2022/07/26 12:38:52;;;;;;;7.22;3.90;;;30.20;99.90;;;;;;5033262;28;20026;-50
2022/07/26 12:41:38;;;;;;;7.00;4.18;;;30.20;99.90;;;;;;5033065;28;20026;-49
2022/07/26 12:44:05;;;;;;;9.00;4.10;;;30.20;99.90;;;;;;5032478;28;20017;-49
2022/07/26 12:46:35;;;;;;;6.68;4.20;;;30.20;99.90;;;;;;5032652;28;20030;-49
2022/07/26 12:49:01;;;;;;;8.73;4.40;;;30.20;99.90;;;;;;5032694;28;20036;-49